Time;durP1;ratioP1;P1;durP2;ratioP2;P2;SDS_P1;SDS_P2;PMS_P1;PMS_P2;Temp;Humidity;BMP_temperature;BMP_pressure;BME280_temperature;BME280_humidity;BME280_pressure;Samples;Min_cycle;Max_cycle;Signal;HPM_P1;HPM_P2
2022/06/17 00:01:03;;;;;;;3.53;1.80;;;21.40;51.30;;;;;;5052050;28;20032;-82
2022/06/17 00:03:31;;;;;;;1.95;1.67;;;21.40;51.60;;;;;;5056346;28;20152;-82
2022/06/17 00:05:59;;;;;;;2.33;1.80;;;21.30;51.90;;;;;;5034865;28;20032;-81
2022/06/17 00:08:38;;;;;;;2.33;1.77;;;21.30;51.80;;;;;;5028058;28;20528;-82
2022/06/17 00:11:12;;;;;;;2.40;1.67;;;21.30;52.10;;;;;;5050299;28;20393;-82
2022/06/17 00:13:38;;;;;;;3.75;1.70;;;21.20;52.70;;;;;;5058740;28;20032;-82
2022/06/17 00:16:15;;;;;;;4.00;2.03;;;21.20;51.90;;;;;;5048832;28;20028;-82
2022/06/17 00:18:42;;;;;;;2.05;1.80;;;21.20;52.20;;;;;;5055552;28;20401;-82
2022/06/17 00:21:19;;;;;;;2.80;1.70;;;21.10;52.10;;;;;;5018550;28;20033;-82
2022/06/17 00:23:45;;;;;;;2.13;1.77;;;21.10;53.00;;;;;;5046166;28;20033;-82
2022/06/17 00:26:11;;;;;;;2.45;1.95;;;21.10;52.10;;;;;;5053489;28;20035;-82
2022/06/17 00:28:37;;;;;;;3.07;1.80;;;21.00;52.20;;;;;;5040271;28;20561;-81
2022/06/17 00:31:02;;;;;;;2.05;1.60;;;21.00;52.30;;;;;;5041188;28;20060;-82
2022/06/17 00:33:28;;;;;;;2.40;1.77;;;21.00;52.30;;;;;;5052195;28;20412;-82
2022/06/17 00:35:55;;;;;;;2.40;1.90;;;21.00;52.50;;;;;;5017656;28;20360;-81
2022/06/17 00:38:28;;;;;;;2.47;1.90;;;21.00;52.60;;;;;;5034603;28;20098;-82
2022/06/17 00:40:56;;;;;;;2.30;1.80;;;20.90;53.30;;;;;;5049008;28;20405;-81
2022/06/17 00:43:33;;;;;;;2.78;1.73;;;20.90;52.70;;;;;;5045241;28;20244;-81
2022/06/17 00:46:20;;;;;;;2.80;1.77;;;20.80;53.90;;;;;;5067303;28;20013;-81
2022/06/17 00:49:18;;;;;;;2.70;1.73;;;20.80;53.40;;;;;;5047629;28;20051;-81
2022/06/17 00:51:54;;;;;;;2.40;1.77;;;20.70;53.80;;;;;;5046248;28;20041;-81
2022/06/17 00:54:26;;;;;;;2.22;1.60;;;20.70;53.20;;;;;;5040597;28;20287;-82
2022/06/17 00:56:52;;;;;;;2.63;1.73;;;20.60;53.40;;;;;;5039950;28;20037;-82
2022/06/17 00:59:18;;;;;;;2.42;1.83;;;20.50;53.00;;;;;;5051401;28;20071;-82
2022/06/17 01:01:53;;;;;;;2.70;1.90;;;20.40;53.10;;;;;;5051975;28;20064;-81
2022/06/17 01:04:26;;;;;;;2.50;1.60;;;20.40;54.40;;;;;;5045539;28;20509;-81
2022/06/17 01:06:59;;;;;;;5.13;1.80;;;20.20;54.00;;;;;;5023373;28;20028;-81
2022/06/17 01:12:18;;;;;;;2.37;2.03;;;20.10;54.10;;;;;;5056622;28;20502;-81
2022/06/17 01:14:44;;;;;;;2.83;2.00;;;20.10;53.80;;;;;;5051003;28;20111;-82
2022/06/17 01:17:12;;;;;;;5.15;2.13;;;20.00;53.80;;;;;;5057491;28;20036;-81
2022/06/17 01:19:54;;;;;;;3.97;2.00;;;19.90;54.00;;;;;;5048048;28;20132;-81
2022/06/17 01:22:25;;;;;;;3.28;2.20;;;19.80;55.20;;;;;;5032855;28;20037;-81
2022/06/17 01:24:54;;;;;;;4.07;2.00;;;19.70;54.50;;;;;;5042601;28;20036;-81
2022/06/17 01:27:24;;;;;;;2.83;1.90;;;19.70;54.40;;;;;;5043847;28;20470;-81
2022/06/17 01:29:50;;;;;;;2.90;2.08;;;19.60;54.80;;;;;;5055499;28;20058;-81
2022/06/17 01:32:18;;;;;;;3.78;2.10;;;19.60;54.60;;;;;;5057526;28;20032;-81
2022/06/17 01:34:44;;;;;;;2.93;2.00;;;19.50;54.90;;;;;;5048112;28;20555;-81
2022/06/17 01:37:10;;;;;;;3.20;2.20;;;19.50;54.90;;;;;;5033213;28;20352;-81
2022/06/17 01:39:36;;;;;;;3.95;2.05;;;19.40;55.00;;;;;;5039661;28;20044;-81
2022/06/17 01:42:02;;;;;;;3.50;2.20;;;19.40;55.10;;;;;;5051690;28;20104;-81
2022/06/17 01:44:33;;;;;;;2.63;1.93;;;19.30;55.30;;;;;;5046678;28;20064;-81
2022/06/17 01:47:02;;;;;;;2.65;1.90;;;19.30;56.30;;;;;;5049637;28;20433;-81
2022/06/17 01:49:34;;;;;;;4.25;2.03;;;19.20;55.70;;;;;;5056705;28;20476;-81
2022/06/17 01:52:06;;;;;;;3.47;2.20;;;19.20;56.00;;;;;;5025324;28;20439;-81
2022/06/17 01:54:37;;;;;;;3.65;2.22;;;19.10;56.20;;;;;;5036036;28;20041;-81
2022/06/17 01:57:05;;;;;;;2.77;1.87;;;19.10;56.20;;;;;;5042458;28;20029;-82
2022/06/17 01:59:40;;;;;;;3.70;1.95;;;19.10;56.10;;;;;;5053235;28;20505;-82
2022/06/17 02:02:07;;;;;;;3.53;2.20;;;19.10;57.00;;;;;;5048472;28;20025;-81
2022/06/17 02:04:36;;;;;;;4.00;2.10;;;19.10;56.30;;;;;;5051326;28;20057;-82
2022/06/17 02:07:10;;;;;;;2.78;2.28;;;19.00;56.60;;;;;;5026790;28;20032;-81
2022/06/17 02:09:36;;;;;;;2.63;2.00;;;19.00;56.90;;;;;;5040000;28;20509;-82
2022/06/17 02:12:02;;;;;;;3.67;2.20;;;19.00;56.50;;;;;;5043546;28;20046;-82
2022/06/17 02:14:29;;;;;;;3.17;2.30;;;19.00;56.60;;;;;;5054082;28;20496;-81
2022/06/17 02:16:56;;;;;;;2.67;2.17;;;19.00;56.70;;;;;;5051915;28;20223;-81
2022/06/17 02:19:24;;;;;;;2.72;2.20;;;19.00;56.80;;;;;;5054794;28;20115;-81
2022/06/17 02:22:04;;;;;;;3.67;2.10;;;18.90;57.00;;;;;;5033900;28;20040;-81
2022/06/17 02:24:30;;;;;;;2.85;2.15;;;18.90;57.30;;;;;;5055602;28;20028;-81
2022/06/17 02:27:00;;;;;;;3.70;2.20;;;18.90;57.00;;;;;;5026140;28;20040;-81
2022/06/17 02:29:28;;;;;;;4.17;2.30;;;18.80;57.60;;;;;;5050489;28;20052;-81
2022/06/17 02:31:55;;;;;;;3.28;2.00;;;18.80;57.20;;;;;;5046461;28;20338;-81
2022/06/17 02:34:21;;;;;;;3.55;2.20;;;18.80;57.30;;;;;;5053201;28;20029;-81
2022/06/17 02:36:58;;;;;;;2.65;2.08;;;18.80;57.40;;;;;;5044570;28;20037;-81
2022/06/17 02:39:26;;;;;;;2.78;2.10;;;18.80;58.80;;;;;;5040087;28;20041;-81
2022/06/17 02:41:52;;;;;;;3.03;2.10;;;18.70;57.50;;;;;;5041564;28;20037;-81
2022/06/17 02:44:31;;;;;;;3.00;2.13;;;18.70;57.60;;;;;;5041832;28;20346;-81
2022/06/17 02:46:59;;;;;;;3.33;2.17;;;18.70;59.30;;;;;;5047558;28;20431;-81
2022/06/17 02:49:29;;;;;;;2.92;2.22;;;18.70;58.00;;;;;;5051106;28;20490;-81
2022/06/17 02:51:55;;;;;;;4.22;2.13;;;18.60;58.20;;;;;;5054644;28;20102;-81
2022/06/17 02:54:47;;;;;;;4.53;2.10;;;18.60;58.10;;;;;;5030904;28;20055;-81
2022/06/17 02:57:25;;;;;;;2.83;1.98;;;18.60;59.50;;;;;;5040249;28;20040;-81
2022/06/17 03:00:21;;;;;;;2.50;2.10;;;18.60;59.80;;;;;;5026050;28;20109;-81
2022/06/17 03:02:54;;;;;;;2.65;1.95;;;18.60;60.50;;;;;;5051585;28;20114;-81
2022/06/17 03:05:26;;;;;;;4.05;2.10;;;18.60;59.10;;;;;;5043553;28;20604;-81
2022/06/17 03:07:53;;;;;;;2.20;1.90;;;18.60;59.20;;;;;;5035188;28;20036;-81
2022/06/17 03:10:29;;;;;;;4.45;2.30;;;18.60;58.70;;;;;;5047587;28;20036;-81
2022/06/17 03:13:11;;;;;;;4.93;2.00;;;18.60;59.40;;;;;;5027677;28;20071;-82
2022/06/17 03:15:41;;;;;;;4.32;2.28;;;18.60;59.60;;;;;;5049415;28;20091;-81
2022/06/17 03:18:07;;;;;;;2.92;2.10;;;18.60;59.00;;;;;;5043150;28;20288;-81
2022/06/17 03:20:34;;;;;;;2.70;2.10;;;18.60;58.90;;;;;;5053873;28;20129;-81
2022/06/17 03:23:22;;;;;;;3.63;2.22;;;18.60;59.10;;;;;;5040435;28;20033;-81
2022/06/17 03:25:56;;;;;;;3.80;2.20;;;18.60;61.20;;;;;;5026982;28;20455;-81
2022/06/17 03:28:38;;;;;;;4.25;2.30;;;18.60;59.70;;;;;;5051003;28;20040;-81
2022/06/17 03:31:09;;;;;;;3.08;2.10;;;18.60;60.90;;;;;;5037608;28;20411;-81
2022/06/17 03:33:42;;;;;;;2.50;2.00;;;18.60;59.80;;;;;;5057548;28;20194;-81
2022/06/17 03:36:16;;;;;;;2.53;2.08;;;18.60;60.00;;;;;;5035954;28;20278;-81
2022/06/17 03:38:49;;;;;;;3.45;2.20;;;18.60;60.20;;;;;;5048519;28;20421;-80
2022/06/17 03:41:35;;;;;;;3.15;2.35;;;18.60;60.60;;;;;;5030108;28;20122;-81
2022/06/17 03:44:10;;;;;;;4.43;2.25;;;18.60;61.50;;;;;;5019859;28;20927;-81
2022/06/17 03:46:48;;;;;;;3.37;2.20;;;18.60;61.20;;;;;;5062527;28;20031;-81
2022/06/17 03:49:18;;;;;;;2.78;2.15;;;18.70;61.70;;;;;;5046858;28;20037;-82
2022/06/17 03:51:45;;;;;;;4.68;2.30;;;18.70;60.80;;;;;;5062342;28;20029;-81
2022/06/17 03:54:15;;;;;;;2.53;2.10;;;18.70;60.60;;;;;;5039054;28;20025;-81
2022/06/17 03:56:45;;;;;;;2.97;2.17;;;18.80;61.30;;;;;;5032864;28;20308;-81
2022/06/17 03:59:16;;;;;;;2.90;2.37;;;18.80;61.00;;;;;;5037621;28;20036;-81
2022/06/17 04:01:46;;;;;;;4.10;2.40;;;18.80;61.70;;;;;;5039396;28;20040;-81
2022/06/17 04:04:19;;;;;;;4.05;2.40;;;18.80;61.40;;;;;;5043310;28;20060;-81
2022/06/17 04:06:48;;;;;;;4.55;2.50;;;18.90;61.90;;;;;;5042745;28;20033;-81
2022/06/17 04:09:26;;;;;;;4.32;2.70;;;18.90;61.40;;;;;;5041976;28;20504;-81
2022/06/17 04:11:57;;;;;;;3.40;2.33;;;18.90;61.70;;;;;;5023960;28;20039;-81
2022/06/17 04:14:37;;;;;;;4.30;2.30;;;18.90;61.70;;;;;;5038126;28;20536;-81
2022/06/17 04:17:08;;;;;;;3.40;2.35;;;18.90;62.70;;;;;;5037458;28;20149;-82
2022/06/17 04:19:33;;;;;;;3.45;2.28;;;18.90;61.30;;;;;;5048096;28;20396;-81
2022/06/17 04:22:26;;;;;;;3.57;2.20;;;19.00;61.40;;;;;;5032323;28;20037;-81
2022/06/17 04:25:00;;;;;;;3.60;2.25;;;19.00;63.40;;;;;;5043702;28;20021;-82
2022/06/17 04:27:56;;;;;;;3.65;2.30;;;18.90;61.80;;;;;;5029513;28;20547;-82
2022/06/17 04:30:25;;;;;;;3.58;2.33;;;18.90;62.30;;;;;;5036591;28;20514;-81
2022/06/17 04:32:56;;;;;;;4.07;2.10;;;19.00;63.10;;;;;;5043744;28;20032;-81
2022/06/17 04:35:22;;;;;;;3.35;2.03;;;19.00;62.00;;;;;;5050197;28;20025;-81
2022/06/17 04:37:47;;;;;;;2.95;2.20;;;19.00;61.60;;;;;;5037133;28;20471;-81
2022/06/17 04:40:41;;;;;;;2.97;2.03;;;19.00;61.70;;;;;;5042968;28;20218;-81
2022/06/17 04:43:21;;;;;;;3.70;2.10;;;19.00;63.80;;;;;;5031554;28;20693;-81
2022/06/17 04:46:03;;;;;;;3.13;2.17;;;19.10;62.80;;;;;;5035904;28;20048;-81
2022/06/17 04:48:29;;;;;;;3.40;2.15;;;19.10;63.60;;;;;;5040247;28;20032;-81
2022/06/17 04:50:55;;;;;;;4.40;2.40;;;19.10;62.20;;;;;;5040383;28;20055;-81
2022/06/17 04:53:21;;;;;;;3.13;2.00;;;19.20;62.30;;;;;;5040658;28;20028;-81
2022/06/17 04:55:47;;;;;;;3.83;2.00;;;19.20;62.20;;;;;;5046357;28;20403;-82
2022/06/17 04:58:15;;;;;;;2.47;1.90;;;19.30;62.10;;;;;;5019729;28;20298;-82
2022/06/17 05:00:48;;;;;;;3.00;2.00;;;19.30;62.40;;;;;;5004667;28;20037;-81
2022/06/17 05:03:14;;;;;;;3.13;1.92;;;19.40;62.80;;;;;;5040982;28;20328;-82
2022/06/17 05:05:43;;;;;;;2.45;1.88;;;19.50;62.20;;;;;;5026268;28;20129;-82
2022/06/17 05:08:24;;;;;;;2.88;1.92;;;19.50;62.20;;;;;;5037490;28;20283;-81
2022/06/17 05:10:55;;;;;;;2.60;1.87;;;19.60;62.90;;;;;;5040887;28;20033;-81
2022/06/17 05:13:43;;;;;;;2.78;1.98;;;19.70;62.20;;;;;;5022989;28;20127;-81
2022/06/17 05:16:15;;;;;;;2.60;2.08;;;19.70;62.50;;;;;;5033506;28;20314;-81
2022/06/17 05:18:41;;;;;;;2.42;2.00;;;19.80;62.40;;;;;;5050169;28;20036;-82
2022/06/17 05:21:18;;;;;;;2.73;2.00;;;19.90;62.60;;;;;;5031893;28;20043;-81
2022/06/17 05:23:43;;;;;;;3.90;2.08;;;19.90;63.40;;;;;;5055940;28;20036;-82
2022/06/17 05:26:10;;;;;;;2.65;2.20;;;20.00;62.70;;;;;;5048375;28;20029;-81
2022/06/17 05:28:35;;;;;;;2.73;1.90;;;20.10;62.80;;;;;;5035411;28;20029;-82
2022/06/17 05:31:02;;;;;;;2.92;2.00;;;20.20;62.70;;;;;;5032832;28;20072;-83
2022/06/17 05:33:28;;;;;;;2.58;1.80;;;20.20;62.50;;;;;;5051387;28;20497;-82
2022/06/17 05:35:54;;;;;;;3.33;2.00;;;20.30;62.50;;;;;;5021554;28;20456;-82
2022/06/17 05:38:19;;;;;;;4.20;2.10;;;20.30;62.20;;;;;;5052631;28;20170;-82
2022/06/17 05:40:45;;;;;;;3.58;2.10;;;20.40;62.00;;;;;;5048158;28;20033;-81
2022/06/17 05:43:12;;;;;;;2.73;1.90;;;20.40;61.80;;;;;;5046519;28;20214;-81
2022/06/17 05:45:38;;;;;;;3.78;2.00;;;20.50;62.00;;;;;;5029340;28;20047;-81
2022/06/17 05:48:04;;;;;;;3.25;2.05;;;20.50;62.00;;;;;;5040940;28;20037;-82
2022/06/17 05:50:30;;;;;;;3.63;1.92;;;20.60;62.00;;;;;;5036243;28;20036;-82
2022/06/17 05:53:02;;;;;;;2.70;1.90;;;20.70;61.90;;;;;;5052515;28;20033;-81
2022/06/17 05:55:30;;;;;;;3.20;1.80;;;20.80;62.90;;;;;;5057966;28;20045;-82
2022/06/17 05:57:57;;;;;;;2.90;1.80;;;20.90;62.00;;;;;;5055575;28;20033;-81
2022/06/17 06:00:25;;;;;;;3.03;1.90;;;21.00;61.90;;;;;;5031820;28;20041;-82
2022/06/17 06:02:55;;;;;;;3.70;2.20;;;21.10;61.80;;;;;;5038169;28;20112;-81
2022/06/17 06:05:23;;;;;;;4.30;1.90;;;21.20;61.70;;;;;;5045953;28;20062;-82
2022/06/17 06:07:48;;;;;;;2.40;1.80;;;21.30;61.50;;;;;;5058140;28;20055;-82
2022/06/17 06:10:15;;;;;;;2.92;1.80;;;21.40;61.40;;;;;;5047580;28;20666;-82
2022/06/17 06:15:29;;;;;;;2.00;1.60;;;21.60;61.20;;;;;;5031713;28;20041;-82
2022/06/17 06:17:54;;;;;;;4.00;1.70;;;21.70;61.20;;;;;;5039196;28;20039;-81
2022/06/17 06:20:21;;;;;;;1.92;1.60;;;21.80;61.00;;;;;;5019344;28;20044;-82
2022/06/17 06:22:47;;;;;;;2.42;1.60;;;21.90;60.90;;;;;;5043252;28;20176;-82
2022/06/17 06:25:16;;;;;;;3.70;1.60;;;22.00;60.70;;;;;;5051448;28;20027;-82
2022/06/17 06:27:41;;;;;;;3.20;1.60;;;22.10;60.30;;;;;;5060522;28;20119;-82
2022/06/17 06:30:19;;;;;;;2.70;1.80;;;22.20;60.00;;;;;;5025243;28;25942;-81
2022/06/17 06:32:53;;;;;;;3.03;1.67;;;22.20;59.60;;;;;;5037700;28;20035;-81
2022/06/17 06:35:21;;;;;;;2.73;1.60;;;22.30;59.40;;;;;;5047111;28;20056;-82
2022/06/17 06:37:47;;;;;;;3.65;1.80;;;22.20;59.30;;;;;;5029248;28;20045;-81
2022/06/17 06:40:13;;;;;;;3.15;1.52;;;22.30;59.40;;;;;;5052682;28;20252;-82
2022/06/17 06:42:39;;;;;;;2.17;1.50;;;22.30;59.50;;;;;;5053160;28;20220;-81
2022/06/17 06:45:06;;;;;;;2.15;1.50;;;22.30;59.50;;;;;;5034053;28;20384;-82
2022/06/17 06:47:32;;;;;;;2.33;1.50;;;22.40;59.50;;;;;;5044702;28;20064;-82
2022/06/17 06:49:58;;;;;;;2.93;1.30;;;22.40;59.30;;;;;;5038491;28;20673;-81
2022/06/17 06:52:23;;;;;;;2.55;1.33;;;22.50;59.30;;;;;;5040562;28;20477;-81
2022/06/17 06:54:51;;;;;;;2.67;1.60;;;22.60;59.30;;;;;;5045839;28;20116;-82
2022/06/17 06:57:19;;;;;;;1.65;1.40;;;22.60;59.00;;;;;;5050710;28;20045;-82
2022/06/17 06:59:45;;;;;;;2.10;1.23;;;22.70;59.10;;;;;;5047217;28;20029;-82
2022/06/17 07:02:10;;;;;;;1.93;1.33;;;22.80;59.10;;;;;;5021970;28;20051;-81
2022/06/17 07:04:36;;;;;;;2.58;1.50;;;22.90;59.00;;;;;;5040665;28;20459;-82
2022/06/17 07:07:01;;;;;;;2.00;1.57;;;23.00;58.80;;;;;;5032721;28;20040;-82
2022/06/17 07:09:27;;;;;;;4.35;1.60;;;23.10;58.70;;;;;;5042441;28;20083;-82
2022/06/17 07:11:53;;;;;;;1.80;1.30;;;23.20;58.50;;;;;;5041983;28;20064;-82
2022/06/17 07:14:18;;;;;;;2.43;1.40;;;23.30;58.30;;;;;;5040604;28;20083;-81
2022/06/17 07:16:44;;;;;;;1.98;1.30;;;23.40;58.00;;;;;;5029612;28;20061;-81
2022/06/17 07:19:16;;;;;;;2.33;1.50;;;23.50;57.80;;;;;;5043056;28;20131;-82
2022/06/17 07:21:41;;;;;;;2.55;1.42;;;23.60;57.50;;;;;;5037319;28;20100;-82
2022/06/17 07:24:07;;;;;;;1.42;1.23;;;23.70;57.30;;;;;;5028643;28;20064;-81
2022/06/17 07:26:33;;;;;;;2.43;1.33;;;23.70;57.20;;;;;;5036212;28;20036;-82
2022/06/17 07:28:58;;;;;;;3.28;1.50;;;23.80;57.20;;;;;;5052815;28;20345;-82
2022/06/17 07:31:25;;;;;;;2.20;1.60;;;23.90;57.10;;;;;;5042537;28;20277;-81
2022/06/17 07:33:51;;;;;;;2.50;1.30;;;24.00;57.00;;;;;;5027433;28;20029;-82
2022/06/17 07:41:52;;;;;;;2.47;1.55;;;24.40;57.60;;;;;;5051972;28;20036;-81
2022/06/17 07:44:18;;;;;;;2.15;1.30;;;24.70;58.10;;;;;;5047855;28;20622;-81
2022/06/17 07:46:44;;;;;;;2.30;1.63;;;24.90;58.00;;;;;;5053359;28;20033;-81
2022/06/17 07:49:12;;;;;;;2.70;1.70;;;25.20;58.00;;;;;;5016411;28;20086;-82
2022/06/17 07:51:38;;;;;;;2.50;1.55;;;25.60;57.90;;;;;;5031601;28;20127;-81
2022/06/17 07:54:04;;;;;;;2.65;1.50;;;25.90;57.90;;;;;;5047791;28;20060;-81
2022/06/17 07:56:29;;;;;;;2.63;1.60;;;26.30;57.50;;;;;;5039951;28;20441;-81
2022/06/17 07:58:55;;;;;;;2.20;1.63;;;26.70;57.10;;;;;;5039690;28;20043;-82
2022/06/17 08:01:21;;;;;;;2.42;1.50;;;27.00;56.70;;;;;;5048899;28;20321;-83
2022/06/17 08:03:46;;;;;;;3.60;1.53;;;27.40;56.60;;;;;;5022531;28;20033;-83
2022/06/17 08:06:14;;;;;;;2.60;1.65;;;27.80;56.40;;;;;;5034115;28;20499;-83
2022/06/17 08:08:40;;;;;;;3.47;1.63;;;28.20;56.10;;;;;;5042743;28;20040;-83
2022/06/17 08:11:06;;;;;;;1.80;1.30;;;28.50;55.70;;;;;;5031181;28;20036;-83
2022/06/17 08:13:33;;;;;;;1.60;1.50;;;28.90;55.50;;;;;;5041310;28;20037;-82
2022/06/17 08:16:03;;;;;;;2.00;1.40;;;29.40;55.20;;;;;;5044429;28;20480;-83
2022/06/17 08:18:29;;;;;;;1.80;1.58;;;29.70;53.70;;;;;;5024370;28;21114;-83
2022/06/17 08:20:55;;;;;;;2.05;1.60;;;30.10;53.90;;;;;;5037663;28;20037;-83
2022/06/17 08:23:21;;;;;;;2.00;1.50;;;30.50;53.50;;;;;;5031424;28;20114;-83
2022/06/17 08:25:47;;;;;;;1.45;1.30;;;30.80;52.90;;;;;;5055290;28;20032;-83
2022/06/17 08:28:15;;;;;;;1.77;1.55;;;31.10;52.50;;;;;;5027261;28;20044;-83
2022/06/17 08:30:46;;;;;;;1.60;1.27;;;31.50;51.50;;;;;;5044105;28;20373;-82
2022/06/17 08:33:12;;;;;;;1.65;1.33;;;31.80;51.20;;;;;;5046839;28;20062;-82
2022/06/17 08:35:42;;;;;;;1.93;1.50;;;32.20;51.10;;;;;;5026839;28;20044;-83
2022/06/17 08:38:15;;;;;;;1.83;1.52;;;32.50;49.50;;;;;;5032375;28;20056;-82
2022/06/17 08:40:53;;;;;;;1.70;1.50;;;32.70;48.20;;;;;;5039295;28;20037;-83
2022/06/17 08:43:58;;;;;;;1.92;1.58;;;33.00;46.60;;;;;;5029329;28;20256;-83
2022/06/17 08:46:52;;;;;;;1.98;1.40;;;33.30;46.00;;;;;;5049883;28;20524;-83
2022/06/17 08:49:55;;;;;;;2.07;1.40;;;33.60;45.30;;;;;;5048473;28;20138;-83
2022/06/17 08:52:58;;;;;;;2.30;1.60;;;33.80;44.90;;;;;;5024274;28;20175;-83
2022/06/17 08:55:50;;;;;;;1.95;1.70;;;34.00;44.50;;;;;;5021745;28;20041;-83
2022/06/17 08:58:36;;;;;;;1.52;1.40;;;34.20;45.30;;;;;;5027877;28;20173;-83
2022/06/17 09:01:25;;;;;;;2.58;1.70;;;34.40;43.50;;;;;;5025179;28;20180;-83
2022/06/17 09:04:13;;;;;;;1.97;1.50;;;34.60;43.70;;;;;;5038555;28;20025;-82
2022/06/17 09:06:41;;;;;;;1.70;1.30;;;34.80;43.20;;;;;;5022849;28;20048;-82
2022/06/17 09:09:20;;;;;;;1.40;1.30;;;35.00;43.20;;;;;;5021462;28;23291;-83
2022/06/17 09:12:04;;;;;;;1.98;1.77;;;35.20;41.50;;;;;;5039739;28;20620;-82
2022/06/17 09:14:57;;;;;;;1.70;1.50;;;35.40;41.10;;;;;;5033434;28;20500;-83
2022/06/17 09:17:35;;;;;;;3.37;1.47;;;35.60;40.70;;;;;;5034061;28;20092;-83
2022/06/17 09:20:04;;;;;;;1.67;1.42;;;35.70;41.90;;;;;;5032142;28;20085;-83
2022/06/17 09:22:37;;;;;;;1.92;1.70;;;35.90;41.60;;;;;;5023080;28;20036;-83
2022/06/17 09:25:07;;;;;;;1.73;1.63;;;36.10;40.40;;;;;;5032588;28;20058;-83
2022/06/17 09:27:43;;;;;;;2.60;1.80;;;36.30;40.10;;;;;;5044543;28;20094;-83
2022/06/17 09:30:11;;;;;;;2.30;1.80;;;36.40;39.50;;;;;;5042789;28;20099;-83
2022/06/17 09:32:42;;;;;;;2.33;1.88;;;36.60;39.30;;;;;;5026495;28;20408;-84
2022/06/17 09:35:13;;;;;;;1.60;1.50;;;36.80;38.60;;;;;;5041475;28;20383;-83
2022/06/17 09:37:48;;;;;;;1.60;1.50;;;37.00;37.60;;;;;;5023846;28;20040;-83
2022/06/17 09:40:28;;;;;;;1.98;1.80;;;37.10;38.00;;;;;;5034272;28;20033;-83
2022/06/17 09:43:08;;;;;;;1.90;1.57;;;37.30;35.30;;;;;;5046948;28;20067;-83
2022/06/17 09:46:04;;;;;;;2.25;1.55;;;37.40;36.20;;;;;;5030497;28;20037;-83
2022/06/17 09:48:43;;;;;;;1.63;1.48;;;37.50;34.90;;;;;;5033115;28;20057;-82
2022/06/17 09:51:19;;;;;;;1.52;1.42;;;37.60;35.30;;;;;;5031938;28;20045;-84
2022/06/17 09:54:00;;;;;;;4.50;1.85;;;37.70;34.10;;;;;;5022735;28;20040;-83
2022/06/17 09:56:51;;;;;;;2.00;1.77;;;37.80;33.70;;;;;;5031516;28;20037;-82
2022/06/17 09:59:32;;;;;;;2.13;1.60;;;37.90;33.30;;;;;;5031647;28;20064;-82
2022/06/17 10:02:06;;;;;;;1.70;1.60;;;37.90;32.40;;;;;;5037139;28;20052;-83
2022/06/17 10:04:32;;;;;;;3.20;1.70;;;38.10;33.40;;;;;;5039737;28;20273;-83
2022/06/17 10:07:23;;;;;;;2.07;1.87;;;38.10;33.40;;;;;;5023933;28;20036;-83
2022/06/17 10:09:59;;;;;;;2.75;1.63;;;38.20;32.70;;;;;;5021355;28;20826;-83
2022/06/17 10:12:32;;;;;;;2.67;1.70;;;38.30;32.40;;;;;;5043856;28;20064;-83
2022/06/17 10:15:13;;;;;;;1.70;1.60;;;38.30;32.00;;;;;;5033845;28;20278;-82
2022/06/17 10:21:04;;;;;;;4.05;1.50;;;38.50;30.70;;;;;;5033082;28;20040;-83
2022/06/17 10:23:59;;;;;;;2.30;1.88;;;38.50;31.40;;;;;;5041540;28;20474;-82
2022/06/17 10:26:50;;;;;;;2.53;1.58;;;38.70;31.60;;;;;;5033539;28;20041;-83
2022/06/17 10:29:19;;;;;;;1.63;1.52;;;38.80;31.70;;;;;;5026575;28;20056;-83
2022/06/17 10:31:47;;;;;;;2.50;1.93;;;39.00;31.50;;;;;;5029994;28;20456;-84
2022/06/17 10:34:23;;;;;;;2.40;1.90;;;39.10;30.90;;;;;;5058674;28;20029;-82
2022/06/17 10:36:54;;;;;;;3.53;1.70;;;39.10;30.60;;;;;;5031360;28;20072;-84
2022/06/17 10:39:22;;;;;;;2.75;1.80;;;39.10;30.00;;;;;;5033270;28;20038;-83
2022/06/17 10:41:48;;;;;;;2.63;1.88;;;39.10;29.80;;;;;;5004436;28;20266;-82
2022/06/17 10:44:17;;;;;;;1.70;1.60;;;39.00;29.60;;;;;;5026906;28;20020;-83
2022/06/17 10:46:49;;;;;;;2.10;2.00;;;39.00;30.10;;;;;;5039663;28;20046;-83
2022/06/17 10:49:27;;;;;;;2.47;1.65;;;39.10;29.80;;;;;;5043818;28;20485;-84
2022/06/17 10:51:57;;;;;;;2.15;1.70;;;39.20;30.00;;;;;;5045184;28;20051;-84
2022/06/17 10:54:29;;;;;;;2.22;2.00;;;39.30;29.70;;;;;;5042019;28;20040;-85
2022/06/17 10:57:05;;;;;;;3.00;1.90;;;39.50;28.80;;;;;;5016396;28;20118;-83
2022/06/17 10:59:43;;;;;;;2.58;1.50;;;39.60;28.80;;;;;;5021237;28;20044;-83
2022/06/17 11:02:21;;;;;;;2.33;1.70;;;39.80;28.90;;;;;;5042349;28;20033;-84
2022/06/17 11:04:54;;;;;;;2.40;2.20;;;40.00;29.20;;;;;;5041675;28;20488;-84
2022/06/17 11:07:30;;;;;;;2.47;2.17;;;40.20;28.90;;;;;;5042824;28;20564;-84
2022/06/17 11:10:00;;;;;;;2.43;2.23;;;40.30;28.70;;;;;;5034340;28;20524;-84
2022/06/17 11:12:36;;;;;;;2.03;1.70;;;40.50;28.90;;;;;;5010991;28;20679;-85
2022/06/17 11:15:17;;;;;;;2.38;2.13;;;40.50;27.60;;;;;;5025387;28;20525;-83
2022/06/17 11:17:46;;;;;;;2.58;2.10;;;40.60;27.60;;;;;;5025560;28;20036;-84
2022/06/17 11:20:33;;;;;;;2.00;1.80;;;40.60;27.40;;;;;;5036647;28;20045;-84
2022/06/17 11:23:01;;;;;;;2.17;1.97;;;40.50;26.90;;;;;;5052017;28;20059;-83
2022/06/17 11:25:33;;;;;;;2.05;1.85;;;40.50;27.80;;;;;;5042622;28;20063;-84
2022/06/17 11:28:18;;;;;;;2.45;1.90;;;40.50;27.30;;;;;;5010605;28;20046;-85
2022/06/17 11:31:00;;;;;;;1.92;1.73;;;40.50;27.30;;;;;;5032637;28;20033;-84
2022/06/17 11:33:33;;;;;;;3.35;2.05;;;40.60;27.00;;;;;;5026702;28;20120;-84
2022/06/17 11:36:16;;;;;;;2.47;2.00;;;40.60;26.80;;;;;;5034182;28;20021;-85
2022/06/17 11:38:42;;;;;;;2.17;1.98;;;40.60;26.40;;;;;;5027125;28;20580;-84
2022/06/17 11:41:08;;;;;;;2.90;1.73;;;40.50;26.80;;;;;;5034024;28;20037;-83
2022/06/17 11:43:39;;;;;;;2.00;1.65;;;40.50;27.00;;;;;;5010431;28;20649;-85
2022/06/17 11:46:11;;;;;;;2.10;2.00;;;40.50;27.00;;;;;;5041689;28;20132;-84
2022/06/17 11:48:44;;;;;;;2.13;1.98;;;40.50;27.00;;;;;;5024822;28;21810;-84
2022/06/17 11:51:17;;;;;;;1.80;1.70;;;40.50;27.00;;;;;;5040267;28;20098;-83
2022/06/17 11:54:04;;;;;;;2.13;2.03;;;40.50;26.60;;;;;;5039817;28;20056;-84
2022/06/17 11:56:35;;;;;;;2.60;2.08;;;40.50;26.10;;;;;;5009062;28;20037;-83
2022/06/17 11:59:25;;;;;;;2.93;2.00;;;40.60;26.50;;;;;;5050017;28;20051;-84
2022/06/17 12:01:54;;;;;;;1.92;1.70;;;40.70;26.10;;;;;;5032145;28;20520;-85
2022/06/17 12:04:34;;;;;;;1.88;1.60;;;40.80;26.70;;;;;;5035977;28;20037;-84
2022/06/17 12:07:00;;;;;;;1.60;1.50;;;40.90;26.10;;;;;;5032205;28;20626;-84
2022/06/17 12:09:26;;;;;;;1.90;1.80;;;40.90;26.30;;;;;;5043802;28;20136;-85
2022/06/17 12:12:18;;;;;;;2.60;2.28;;;41.00;26.20;;;;;;5042403;28;20466;-84
2022/06/17 12:14:50;;;;;;;1.95;1.83;;;41.00;26.40;;;;;;5057352;28;20256;-83
2022/06/17 12:17:18;;;;;;;1.80;1.70;;;40.90;26.00;;;;;;5036248;28;20063;-83
2022/06/17 12:19:44;;;;;;;2.20;2.00;;;40.90;26.10;;;;;;5036948;28;20082;-84
2022/06/17 12:22:25;;;;;;;1.90;1.80;;;40.90;26.20;;;;;;5036223;28;20115;-85
2022/06/17 12:25:06;;;;;;;2.25;2.10;;;40.90;26.20;;;;;;5046562;28;20025;-84
2022/06/17 12:27:36;;;;;;;2.20;1.92;;;41.00;26.40;;;;;;5042894;28;20712;-84
2022/06/17 12:30:28;;;;;;;2.13;1.60;;;41.00;25.80;;;;;;5030687;28;20383;-85
2022/06/17 12:33:15;;;;;;;2.60;2.20;;;41.00;25.70;;;;;;5043751;28;20037;-83
2022/06/17 12:35:47;;;;;;;2.13;1.90;;;40.90;24.90;;;;;;5027634;28;20578;-84
2022/06/17 12:38:28;;;;;;;1.85;1.70;;;40.90;25.40;;;;;;5036429;28;20047;-84
2022/06/17 12:40:55;;;;;;;2.25;1.83;;;40.70;25.80;;;;;;5028239;28;20190;-84
2022/06/17 12:43:37;;;;;;;2.57;1.53;;;40.70;26.00;;;;;;5026440;28;20090;-83
2022/06/17 12:46:09;;;;;;;2.00;1.80;;;40.80;25.40;;;;;;5036786;28;20476;-85
2022/06/17 12:53:13;;;;;;;2.50;2.30;;;40.80;25.90;;;;;;5010749;28;20749;-84
2022/06/17 12:55:06;;;;;;;1.80;1.70;;;40.80;25.40;;;;;;5025909;28;20233;-83
2022/06/17 12:57:47;;;;;;;1.93;1.80;;;40.70;25.10;;;;;;5040679;28;20086;-85
2022/06/17 13:00:24;;;;;;;1.92;1.80;;;40.70;25.20;;;;;;5014929;28;20469;-83
2022/06/17 13:02:50;;;;;;;2.83;2.00;;;40.60;25.20;;;;;;5018716;28;20032;-85
2022/06/17 13:05:42;;;;;;;1.67;1.50;;;40.40;25.50;;;;;;5024320;28;20064;-85
2022/06/17 13:08:26;;;;;;;1.70;1.60;;;40.30;25.20;;;;;;5042612;28;20044;-85
2022/06/17 13:11:02;;;;;;;1.80;1.67;;;40.40;25.60;;;;;;5033105;28;20036;-83
2022/06/17 13:13:33;;;;;;;2.45;1.52;;;40.30;25.30;;;;;;5051919;28;20028;-84
2022/06/17 13:16:08;;;;;;;2.20;2.00;;;40.30;25.40;;;;;;5012603;28;20342;-84
2022/06/17 13:19:01;;;;;;;1.73;1.63;;;40.40;25.40;;;;;;5039469;28;20389;-85
2022/06/17 13:21:33;;;;;;;1.98;1.77;;;40.40;25.60;;;;;;5029174;28;20489;-84
2022/06/17 13:24:28;;;;;;;2.60;1.77;;;40.40;25.90;;;;;;5046424;28;20099;-83
2022/06/17 13:27:22;;;;;;;2.20;1.73;;;40.50;25.70;;;;;;5035035;28;20177;-84
2022/06/17 13:30:06;;;;;;;2.00;1.80;;;40.50;25.10;;;;;;5027772;28;20627;-84
2022/06/17 13:32:45;;;;;;;2.20;1.60;;;40.50;25.80;;;;;;5044420;28;20737;-85
2022/06/17 13:35:27;;;;;;;2.28;1.70;;;40.60;25.60;;;;;;5012036;28;20185;-84